Richmond, VA (23241)

11:49 PM EST on December 20, 2014 (GMT -0500)
Laburnum Park/Ginter Park | Change Station
CLOSE
Current Station
Personal Weather Station
Location: Richmond, VA
Elevation: 195 ft
Nearby Weather Stations

Elev 195 ft 37.58 °N, 77.45 °W | Updated 11 seconds ago

Overcast
Overcast
34.6 °F
Feels Like 35 °F
N
0.0
Wind Variable Wind from NNE
Gusts 0.0 mph

Today
High -- | Low -- °F
--% Chance of Precip.
Yesterday
High -- | Low -- °F
Precip. -- in
7:20 AM 4:54 PM
Waning Crescent, 1% visible
Pressure 30.32 in
Visibility 10.0 miles
Clouds Few 6000 ft
Overcast 8500 ft
Windchill 35 °F
Dew Point 23 °F
Humidity 62%
Rainfall 0.00 in
Snow Depth Not available.
UV 0 out of 12
Pollen .10 out of 12
Air Quality Not available.
Flu Activity Not available.
METAR KRIC 210354Z 00000KT 10SM FEW060 OVC085 02/M05 A3030 RMK AO2 SLP268 T00221050

More Conditions Fewer Conditions

Pressure 30.32 in
Visibility 10.0 miles
Clouds Few 6000 ft
Overcast 8500 ft
Windchill 35 °F
Dew Point 23 °F
Humidity 62%
Rainfall 0.00 in
Snow Depth Not available.
UV 0 out of 12
Pollen .10 out of 12
Air Quality Not available.
Flu Activity Not available.
METAR KRIC 210354Z 00000KT 10SM FEW060 OVC085 02/M05 A3030 RMK AO2 SLP268 T00221050

More Conditions Fewer Conditions

10-Day Weather Forecast

Almanac

Astronomy

Dec. 20, 2014 Rise Set
Actual Time
Civil Twilight
Nautical Twilight
Astronomical Twilight
Moon
Length of Visible Light
Length of Day
Tomorrow will be .
, % of the Moon is Illuminated

Today's Extremes

State Highs State Lows

Community

WunderPhotos

Upload Photos

1,779,358 photos uploaded!

WunderBlogs® & News

Nearby

Air Quality

  Air Quality AQ Index Pollutant
Not available.

Snow Depth

Station Depth Elevation

Earthquake Activity

City Distance Mag. Time & Date
Minimum magnitude displayed is 2.5.

Coastal Water Temperatures

Place Temperature

Nearby Weather Stations